sensor_id;sensor_type;location;lat;lon;timestamp;temperature;humidity
12413;DHT22;13877;18.896;-99.222;2023-03-31T00:00:45;29.40;15.60
12413;DHT22;13877;18.896;-99.222;2023-03-31T00:03:13;29.30;15.40
12413;DHT22;13877;18.896;-99.222;2023-03-31T00:05:58;29.10;15.20
12413;DHT22;13877;18.896;-99.222;2023-03-31T00:08:27;29.00;15.80
12413;DHT22;13877;18.896;-99.222;2023-03-31T00:10:58;29.00;16.30
12413;DHT22;13877;18.896;-99.222;2023-03-31T00:13:29;29.10;16.60
12413;DHT22;13877;18.896;-99.222;2023-03-31T00:16:01;29.10;17.00
12413;DHT22;13877;18.896;-99.222;2023-03-31T00:18:29;28.90;17.50
12413;DHT22;13877;18.896;-99.222;2023-03-31T00:21:10;28.70;17.30
12413;DHT22;13877;18.896;-99.222;2023-03-31T00:23:57;28.60;18.40
12413;DHT22;13877;18.896;-99.222;2023-03-31T00:26:25;28.40;17.90
12413;DHT22;13877;18.896;-99.222;2023-03-31T00:28:53;28.40;18.70
12413;DHT22;13877;18.896;-99.222;2023-03-31T00:31:21;28.30;18.70
12413;DHT22;13877;18.896;-99.222;2023-03-31T00:33:49;28.10;18.80
12413;DHT22;13877;18.896;-99.222;2023-03-31T00:36:16;27.80;19.50
12413;DHT22;13877;18.896;-99.222;2023-03-31T00:38:47;27.80;19.40
12413;DHT22;13877;18.896;-99.222;2023-03-31T00:41:15;27.70;19.50
12413;DHT22;13877;18.896;-99.222;2023-03-31T00:44:08;27.60;19.50
12413;DHT22;13877;18.896;-99.222;2023-03-31T00:47:11;27.50;19.60
12413;DHT22;13877;18.896;-99.222;2023-03-31T00:49:53;27.10;20.10
12413;DHT22;13877;18.896;-99.222;2023-03-31T00:52:34;26.80;20.10
12413;DHT22;13877;18.896;-99.222;2023-03-31T00:55:13;26.80;19.50
12413;DHT22;13877;18.896;-99.222;2023-03-31T00:57:46;26.70;18.60
12413;DHT22;13877;18.896;-99.222;2023-03-31T01:00:15;26.70;18.50
12413;DHT22;13877;18.896;-99.222;2023-03-31T01:02:47;26.80;18.40
12413;DHT22;13877;18.896;-99.222;2023-03-31T01:05:30;26.80;18.10
12413;DHT22;13877;18.896;-99.222;2023-03-31T01:07:59;26.80;17.60
12413;DHT22;13877;18.896;-99.222;2023-03-31T01:10:28;26.90;17.60
12413;DHT22;13877;18.896;-99.222;2023-03-31T01:12:58;27.10;18.70
12413;DHT22;13877;18.896;-99.222;2023-03-31T01:15:25;27.10;19.70
12413;DHT22;13877;18.896;-99.222;2023-03-31T01:17:53;27.00;20.00
12413;DHT22;13877;18.896;-99.222;2023-03-31T01:20:43;26.90;20.80
12413;DHT22;13877;18.896;-99.222;2023-03-31T01:29:37;26.50;22.20
12413;DHT22;13877;18.896;-99.222;2023-03-31T01:51:25;26.00;22.30
12413;DHT22;13877;18.896;-99.222;2023-03-31T01:54:04;26.00;22.50
12413;DHT22;13877;18.896;-99.222;2023-03-31T01:56:47;25.90;22.40
12413;DHT22;13877;18.896;-99.222;2023-03-31T01:59:37;25.80;22.50
12413;DHT22;13877;18.896;-99.222;2023-03-31T02:05:00;25.80;22.30
12413;DHT22;13877;18.896;-99.222;2023-03-31T02:07:55;25.80;22.30
12413;DHT22;13877;18.896;-99.222;2023-03-31T02:10:26;25.70;22.20
12413;DHT22;13877;18.896;-99.222;2023-03-31T02:12:59;25.70;22.30
12413;DHT22;13877;18.896;-99.222;2023-03-31T02:15:36;25.70;22.10
12413;DHT22;13877;18.896;-99.222;2023-03-31T02:18:06;25.70;22.20
12413;DHT22;13877;18.896;-99.222;2023-03-31T02:20:40;25.70;22.00
12413;DHT22;13877;18.896;-99.222;2023-03-31T02:23:13;25.70;21.90
12413;DHT22;13877;18.896;-99.222;2023-03-31T02:25:46;25.70;21.80
12413;DHT22;13877;18.896;-99.222;2023-03-31T02:28:20;25.70;21.90
12413;DHT22;13877;18.896;-99.222;2023-03-31T02:31:15;25.70;21.90
12413;DHT22;13877;18.896;-99.222;2023-03-31T02:33:47;25.60;21.70
12413;DHT22;13877;18.896;-99.222;2023-03-31T02:36:15;25.60;21.60
12413;DHT22;13877;18.896;-99.222;2023-03-31T02:38:46;25.70;21.50
12413;DHT22;13877;18.896;-99.222;2023-03-31T02:41:14;25.60;21.30
12413;DHT22;13877;18.896;-99.222;2023-03-31T02:43:42;25.60;21.30
12413;DHT22;13877;18.896;-99.222;2023-03-31T02:46:09;25.50;21.20
12413;DHT22;13877;18.896;-99.222;2023-03-31T02:48:40;25.50;21.20
12413;DHT22;13877;18.896;-99.222;2023-03-31T02:57:05;25.50;21.10
12413;DHT22;13877;18.896;-99.222;2023-03-31T02:59:48;25.30;21.10
12413;DHT22;13877;18.896;-99.222;2023-03-31T03:18:58;25.30;21.00
12413;DHT22;13877;18.896;-99.222;2023-03-31T03:21:27;25.20;20.90
12413;DHT22;13877;18.896;-99.222;2023-03-31T03:23:57;25.20;21.10
12413;DHT22;13877;18.896;-99.222;2023-03-31T03:26:26;25.20;20.90
12413;DHT22;13877;18.896;-99.222;2023-03-31T03:28:54;25.00;21.00
12413;DHT22;13877;18.896;-99.222;2023-03-31T03:31:22;24.90;21.30
12413;DHT22;13877;18.896;-99.222;2023-03-31T03:33:51;25.00;21.40
12413;DHT22;13877;18.896;-99.222;2023-03-31T03:36:19;24.90;21.60
12413;DHT22;13877;18.896;-99.222;2023-03-31T03:38:46;24.80;21.60
12413;DHT22;13877;18.896;-99.222;2023-03-31T03:41:13;24.80;21.80
12413;DHT22;13877;18.896;-99.222;2023-03-31T03:43:40;24.70;21.80
12413;DHT22;13877;18.896;-99.222;2023-03-31T03:46:07;24.70;22.00
12413;DHT22;13877;18.896;-99.222;2023-03-31T03:48:34;24.60;22.00
12413;DHT22;13877;18.896;-99.222;2023-03-31T03:51:01;24.60;22.10
12413;DHT22;13877;18.896;-99.222;2023-03-31T03:53:28;24.60;22.10
12413;DHT22;13877;18.896;-99.222;2023-03-31T03:55:56;24.50;22.10
12413;DHT22;13877;18.896;-99.222;2023-03-31T03:58:24;24.50;22.20
12413;DHT22;13877;18.896;-99.222;2023-03-31T04:00:51;24.40;22.10
12413;DHT22;13877;18.896;-99.222;2023-03-31T04:03:18;24.40;22.10
12413;DHT22;13877;18.896;-99.222;2023-03-31T04:05:46;24.40;22.20
12413;DHT22;13877;18.896;-99.222;2023-03-31T04:08:17;24.50;22.90
12413;DHT22;13877;18.896;-99.222;2023-03-31T04:10:45;24.20;23.00
12413;DHT22;13877;18.896;-99.222;2023-03-31T04:13:19;24.10;23.50
12413;DHT22;13877;18.896;-99.222;2023-03-31T04:15:47;23.90;23.70
12413;DHT22;13877;18.896;-99.222;2023-03-31T04:18:14;23.60;24.00
12413;DHT22;13877;18.896;-99.222;2023-03-31T04:20:52;23.60;23.70
12413;DHT22;13877;18.896;-99.222;2023-03-31T04:23:42;23.60;23.70
12413;DHT22;13877;18.896;-99.222;2023-03-31T04:26:15;23.30;24.20
12413;DHT22;13877;18.896;-99.222;2023-03-31T04:28:43;23.10;24.00
12413;DHT22;13877;18.896;-99.222;2023-03-31T04:31:31;23.10;24.10
12413;DHT22;13877;18.896;-99.222;2023-03-31T04:33:57;22.90;25.30
12413;DHT22;13877;18.896;-99.222;2023-03-31T04:36:30;23.20;24.20
12413;DHT22;13877;18.896;-99.222;2023-03-31T04:38:58;23.20;24.20
12413;DHT22;13877;18.896;-99.222;2023-03-31T04:41:26;22.80;25.00
12413;DHT22;13877;18.896;-99.222;2023-03-31T04:43:53;22.50;25.60
12413;DHT22;13877;18.896;-99.222;2023-03-31T04:46:21;22.70;24.40
12413;DHT22;13877;18.896;-99.222;2023-03-31T04:48:49;23.10;24.80
12413;DHT22;13877;18.896;-99.222;2023-03-31T04:51:15;23.30;23.60
12413;DHT22;13877;18.896;-99.222;2023-03-31T04:53:43;23.50;23.40
12413;DHT22;13877;18.896;-99.222;2023-03-31T04:56:10;23.60;23.10
12413;DHT22;13877;18.896;-99.222;2023-03-31T04:58:38;23.50;23.10
12413;DHT22;13877;18.896;-99.222;2023-03-31T05:01:05;23.40;23.60
12413;DHT22;13877;18.896;-99.222;2023-03-31T05:03:32;23.30;23.70
12413;DHT22;13877;18.896;-99.222;2023-03-31T05:05:59;23.10;24.30
12413;DHT22;13877;18.896;-99.222;2023-03-31T05:08:27;22.90;24.40
12413;DHT22;13877;18.896;-99.222;2023-03-31T05:10:54;22.80;24.20
12413;DHT22;13877;18.896;-99.222;2023-03-31T05:13:21;22.60;24.20
12413;DHT22;13877;18.896;-99.222;2023-03-31T05:15:48;22.70;24.10
12413;DHT22;13877;18.896;-99.222;2023-03-31T05:18:17;22.80;23.80
12413;DHT22;13877;18.896;-99.222;2023-03-31T05:20:44;23.10;24.00
12413;DHT22;13877;18.896;-99.222;2023-03-31T05:23:12;23.10;23.60
12413;DHT22;13877;18.896;-99.222;2023-03-31T05:25:39;23.20;23.60
12413;DHT22;13877;18.896;-99.222;2023-03-31T05:28:08;23.20;23.60
12413;DHT22;13877;18.896;-99.222;2023-03-31T05:30:35;23.20;23.80
12413;DHT22;13877;18.896;-99.222;2023-03-31T05:33:02;23.10;24.10
12413;DHT22;13877;18.896;-99.222;2023-03-31T05:35:29;22.80;24.00
12413;DHT22;13877;18.896;-99.222;2023-03-31T05:37:56;22.60;24.60
12413;DHT22;13877;18.896;-99.222;2023-03-31T05:40:23;22.50;24.80
12413;DHT22;13877;18.896;-99.222;2023-03-31T05:42:52;22.50;24.80
12413;DHT22;13877;18.896;-99.222;2023-03-31T05:45:18;22.50;25.10
12413;DHT22;13877;18.896;-99.222;2023-03-31T05:47:45;22.40;25.30
12413;DHT22;13877;18.896;-99.222;2023-03-31T05:50:12;22.40;25.60
12413;DHT22;13877;18.896;-99.222;2023-03-31T05:52:40;22.30;25.70
12413;DHT22;13877;18.896;-99.222;2023-03-31T05:55:07;22.30;25.60
12413;DHT22;13877;18.896;-99.222;2023-03-31T05:57:35;22.40;26.00
12413;DHT22;13877;18.896;-99.222;2023-03-31T06:00:03;22.20;25.90
12413;DHT22;13877;18.896;-99.222;2023-03-31T06:02:32;22.00;26.40
12413;DHT22;13877;18.896;-99.222;2023-03-31T06:04:59;21.60;26.50
12413;DHT22;13877;18.896;-99.222;2023-03-31T06:07:26;21.50;26.90
12413;DHT22;13877;18.896;-99.222;2023-03-31T06:09:53;21.30;26.90
12413;DHT22;13877;18.896;-99.222;2023-03-31T06:12:20;21.40;27.10
12413;DHT22;13877;18.896;-99.222;2023-03-31T06:14:47;21.40;27.20
12413;DHT22;13877;18.896;-99.222;2023-03-31T06:17:14;21.40;27.00
12413;DHT22;13877;18.896;-99.222;2023-03-31T06:19:41;21.30;27.40
12413;DHT22;13877;18.896;-99.222;2023-03-31T06:22:08;21.30;27.40
12413;DHT22;13877;18.896;-99.222;2023-03-31T06:24:35;21.30;27.90
12413;DHT22;13877;18.896;-99.222;2023-03-31T06:27:02;21.40;27.00
12413;DHT22;13877;18.896;-99.222;2023-03-31T06:29:29;21.60;26.80
12413;DHT22;13877;18.896;-99.222;2023-03-31T06:31:56;21.70;26.40
12413;DHT22;13877;18.896;-99.222;2023-03-31T06:34:23;21.80;26.40
12413;DHT22;13877;18.896;-99.222;2023-03-31T06:36:50;21.80;26.20
12413;DHT22;13877;18.896;-99.222;2023-03-31T06:39:18;21.70;26.50
12413;DHT22;13877;18.896;-99.222;2023-03-31T06:41:45;21.70;26.80
12413;DHT22;13877;18.896;-99.222;2023-03-31T06:44:20;21.60;26.70
12413;DHT22;13877;18.896;-99.222;2023-03-31T06:46:50;21.70;26.80
12413;DHT22;13877;18.896;-99.222;2023-03-31T06:49:16;21.80;26.80
12413;DHT22;13877;18.896;-99.222;2023-03-31T06:51:44;21.80;26.80
12413;DHT22;13877;18.896;-99.222;2023-03-31T06:54:10;22.00;26.80
12413;DHT22;13877;18.896;-99.222;2023-03-31T06:56:37;22.00;26.90
12413;DHT22;13877;18.896;-99.222;2023-03-31T06:59:04;21.90;27.60
12413;DHT22;13877;18.896;-99.222;2023-03-31T07:01:31;21.90;27.30
12413;DHT22;13877;18.896;-99.222;2023-03-31T07:04:02;22.00;27.80
12413;DHT22;13877;18.896;-99.222;2023-03-31T07:06:31;21.80;27.70
12413;DHT22;13877;18.896;-99.222;2023-03-31T07:08:58;21.60;27.80
12413;DHT22;13877;18.896;-99.222;2023-03-31T07:11:25;21.50;27.80
12413;DHT22;13877;18.896;-99.222;2023-03-31T07:13:52;21.50;27.80
12413;DHT22;13877;18.896;-99.222;2023-03-31T07:16:19;21.50;28.20
12413;DHT22;13877;18.896;-99.222;2023-03-31T07:18:46;21.40;28.20
12413;DHT22;13877;18.896;-99.222;2023-03-31T07:21:13;21.40;28.50
12413;DHT22;13877;18.896;-99.222;2023-03-31T07:23:40;21.30;29.40
12413;DHT22;13877;18.896;-99.222;2023-03-31T07:26:07;21.20;29.80
12413;DHT22;13877;18.896;-99.222;2023-03-31T07:28:35;21.10;30.00
12413;DHT22;13877;18.896;-99.222;2023-03-31T07:31:09;21.20;30.10
12413;DHT22;13877;18.896;-99.222;2023-03-31T07:33:36;21.10;30.10
12413;DHT22;13877;18.896;-99.222;2023-03-31T07:36:07;21.10;30.20
12413;DHT22;13877;18.896;-99.222;2023-03-31T07:38:34;21.00;30.30
12413;DHT22;13877;18.896;-99.222;2023-03-31T07:41:01;21.10;30.10
12413;DHT22;13877;18.896;-99.222;2023-03-31T07:43:28;21.10;30.20
12413;DHT22;13877;18.896;-99.222;2023-03-31T07:45:55;21.20;30.50
12413;DHT22;13877;18.896;-99.222;2023-03-31T07:48:23;21.40;30.40
12413;DHT22;13877;18.896;-99.222;2023-03-31T07:50:55;21.50;30.00
12413;DHT22;13877;18.896;-99.222;2023-03-31T07:53:29;21.60;29.80
12413;DHT22;13877;18.896;-99.222;2023-03-31T07:55:57;21.60;30.20
12413;DHT22;13877;18.896;-99.222;2023-03-31T07:58:23;21.60;30.50
12413;DHT22;13877;18.896;-99.222;2023-03-31T08:00:52;21.60;30.60
12413;DHT22;13877;18.896;-99.222;2023-03-31T08:03:19;21.40;31.30
12413;DHT22;13877;18.896;-99.222;2023-03-31T08:05:46;21.10;31.80
12413;DHT22;13877;18.896;-99.222;2023-03-31T08:08:12;21.00;32.50
12413;DHT22;13877;18.896;-99.222;2023-03-31T08:10:40;20.90;32.70
12413;DHT22;13877;18.896;-99.222;2023-03-31T08:13:07;20.80;32.70
12413;DHT22;13877;18.896;-99.222;2023-03-31T08:15:35;20.80;32.50
12413;DHT22;13877;18.896;-99.222;2023-03-31T08:18:03;20.80;32.50
12413;DHT22;13877;18.896;-99.222;2023-03-31T08:20:31;20.80;32.40
12413;DHT22;13877;18.896;-99.222;2023-03-31T08:22:58;20.90;32.30
12413;DHT22;13877;18.896;-99.222;2023-03-31T08:25:25;21.00;32.00
12413;DHT22;13877;18.896;-99.222;2023-03-31T08:27:52;21.00;32.10
12413;DHT22;13877;18.896;-99.222;2023-03-31T08:30:20;21.00;32.10
12413;DHT22;13877;18.896;-99.222;2023-03-31T08:32:46;21.00;32.10
12413;DHT22;13877;18.896;-99.222;2023-03-31T08:35:13;21.00;32.50
12413;DHT22;13877;18.896;-99.222;2023-03-31T08:37:40;20.80;32.80
12413;DHT22;13877;18.896;-99.222;2023-03-31T08:40:13;20.80;33.00
12413;DHT22;13877;18.896;-99.222;2023-03-31T08:42:49;20.80;33.00
12413;DHT22;13877;18.896;-99.222;2023-03-31T08:45:38;20.90;33.10
12413;DHT22;13877;18.896;-99.222;2023-03-31T08:50:35;20.80;33.40
12413;DHT22;13877;18.896;-99.222;2023-03-31T08:53:27;20.80;33.20
12413;DHT22;13877;18.896;-99.222;2023-03-31T08:55:56;20.70;33.00
12413;DHT22;13877;18.896;-99.222;2023-03-31T09:01:59;20.80;33.10
12413;DHT22;13877;18.896;-99.222;2023-03-31T09:18:34;20.60;32.20
12413;DHT22;13877;18.896;-99.222;2023-03-31T09:24:14;20.60;32.30
12413;DHT22;13877;18.896;-99.222;2023-03-31T09:26:52;20.70;32.40
12413;DHT22;13877;18.896;-99.222;2023-03-31T09:32:15;20.50;32.90
12413;DHT22;13877;18.896;-99.222;2023-03-31T09:34:44;20.50;33.20
12413;DHT22;13877;18.896;-99.222;2023-03-31T09:37:12;20.40;33.50
12413;DHT22;13877;18.896;-99.222;2023-03-31T09:39:40;20.40;33.60
12413;DHT22;13877;18.896;-99.222;2023-03-31T09:42:12;20.40;34.00
12413;DHT22;13877;18.896;-99.222;2023-03-31T09:44:43;20.40;34.30
12413;DHT22;13877;18.896;-99.222;2023-03-31T09:47:32;20.30;34.30
12413;DHT22;13877;18.896;-99.222;2023-03-31T09:50:06;20.30;35.20
12413;DHT22;13877;18.896;-99.222;2023-03-31T09:52:57;20.30;35.40
12413;DHT22;13877;18.896;-99.222;2023-03-31T09:55:43;20.20;35.50
12413;DHT22;13877;18.896;-99.222;2023-03-31T09:58:15;20.20;35.50
12413;DHT22;13877;18.896;-99.222;2023-03-31T10:01:07;20.10;36.30
12413;DHT22;13877;18.896;-99.222;2023-03-31T10:03:52;20.10;36.20
12413;DHT22;13877;18.896;-99.222;2023-03-31T10:06:24;20.00;36.20
12413;DHT22;13877;18.896;-99.222;2023-03-31T10:11:23;20.00;35.30
12413;DHT22;13877;18.896;-99.222;2023-03-31T10:16:33;20.00;34.60
12413;DHT22;13877;18.896;-99.222;2023-03-31T10:19:19;19.90;34.40
12413;DHT22;13877;18.896;-99.222;2023-03-31T10:21:54;20.10;34.30
12413;DHT22;13877;18.896;-99.222;2023-03-31T10:24:22;20.00;34.10
12413;DHT22;13877;18.896;-99.222;2023-03-31T10:26:52;20.00;34.00
12413;DHT22;13877;18.896;-99.222;2023-03-31T10:29:30;19.90;34.00
12413;DHT22;13877;18.896;-99.222;2023-03-31T10:32:21;19.90;33.60
12413;DHT22;13877;18.896;-99.222;2023-03-31T10:34:49;19.90;33.90
12413;DHT22;13877;18.896;-99.222;2023-03-31T10:37:18;19.90;33.50
12413;DHT22;13877;18.896;-99.222;2023-03-31T10:39:55;20.00;33.50
12413;DHT22;13877;18.896;-99.222;2023-03-31T10:42:22;19.90;33.60
12413;DHT22;13877;18.896;-99.222;2023-03-31T10:45:10;19.90;33.60
12413;DHT22;13877;18.896;-99.222;2023-03-31T10:47:39;19.90;33.20
12413;DHT22;13877;18.896;-99.222;2023-03-31T10:50:13;19.80;33.20
12413;DHT22;13877;18.896;-99.222;2023-03-31T10:52:46;19.70;33.00
12413;DHT22;13877;18.896;-99.222;2023-03-31T10:55:21;19.90;33.00
12413;DHT22;13877;18.896;-99.222;2023-03-31T10:57:55;19.90;33.20
12413;DHT22;13877;18.896;-99.222;2023-03-31T11:00:49;19.80;33.30
12413;DHT22;13877;18.896;-99.222;2023-03-31T11:09:10;19.70;33.80
12413;DHT22;13877;18.896;-99.222;2023-03-31T11:17:23;19.70;34.20
12413;DHT22;13877;18.896;-99.222;2023-03-31T11:20:44;19.70;34.20
12413;DHT22;13877;18.896;-99.222;2023-03-31T11:22:56;19.70;34.50
12413;DHT22;13877;18.896;-99.222;2023-03-31T11:25:59;19.60;34.50
12413;DHT22;13877;18.896;-99.222;2023-03-31T11:31:40;19.50;34.50
12413;DHT22;13877;18.896;-99.222;2023-03-31T11:45:57;19.30;35.40
12413;DHT22;13877;18.896;-99.222;2023-03-31T11:51:29;19.40;35.60
12413;DHT22;13877;18.896;-99.222;2023-03-31T11:54:01;19.50;35.50
12413;DHT22;13877;18.896;-99.222;2023-03-31T11:56:34;19.40;35.50
12413;DHT22;13877;18.896;-99.222;2023-03-31T11:59:01;19.50;35.60
12413;DHT22;13877;18.896;-99.222;2023-03-31T12:01:47;19.40;35.80
12413;DHT22;13877;18.896;-99.222;2023-03-31T12:04:40;19.40;35.90
12413;DHT22;13877;18.896;-99.222;2023-03-31T12:12:42;19.30;36.50
12413;DHT22;13877;18.896;-99.222;2023-03-31T12:17:53;19.10;37.40
12413;DHT22;13877;18.896;-99.222;2023-03-31T12:20:32;18.90;37.70
12413;DHT22;13877;18.896;-99.222;2023-03-31T12:23:02;18.90;38.00
12413;DHT22;13877;18.896;-99.222;2023-03-31T12:25:56;19.00;37.50
12413;DHT22;13877;18.896;-99.222;2023-03-31T12:28:25;19.10;37.30
12413;DHT22;13877;18.896;-99.222;2023-03-31T12:30:54;19.20;37.40
12413;DHT22;13877;18.896;-99.222;2023-03-31T12:33:31;19.20;36.60
12413;DHT22;13877;18.896;-99.222;2023-03-31T12:47:48;19.30;37.40
12413;DHT22;13877;18.896;-99.222;2023-03-31T12:56:12;19.30;38.60
12413;DHT22;13877;18.896;-99.222;2023-03-31T12:58:42;19.30;38.90
12413;DHT22;13877;18.896;-99.222;2023-03-31T13:08:57;19.60;39.70
12413;DHT22;13877;18.896;-99.222;2023-03-31T13:11:37;19.70;39.50
12413;DHT22;13877;18.896;-99.222;2023-03-31T13:14:23;20.00;39.30
12413;DHT22;13877;18.896;-99.222;2023-03-31T13:17:04;20.10;39.80
12413;DHT22;13877;18.896;-99.222;2023-03-31T13:19:38;20.30;39.50
12413;DHT22;13877;18.896;-99.222;2023-03-31T13:22:06;20.40;39.60
12413;DHT22;13877;18.896;-99.222;2023-03-31T13:24:35;20.50;39.70
12413;DHT22;13877;18.896;-99.222;2023-03-31T13:27:37;20.60;38.90
12413;DHT22;13877;18.896;-99.222;2023-03-31T13:36:16;21.40;39.00
12413;DHT22;13877;18.896;-99.222;2023-03-31T13:41:36;22.10;39.60
12413;DHT22;13877;18.896;-99.222;2023-03-31T13:47:25;22.40;38.90
12413;DHT22;13877;18.896;-99.222;2023-03-31T13:58:48;23.20;39.00
12413;DHT22;13877;18.896;-99.222;2023-03-31T14:07:20;23.10;37.80
12413;DHT22;13877;18.896;-99.222;2023-03-31T14:09:51;23.20;38.20
12413;DHT22;13877;18.896;-99.222;2023-03-31T14:14:54;23.40;37.70
12413;DHT22;13877;18.896;-99.222;2023-03-31T14:17:30;23.50;37.80
12413;DHT22;13877;18.896;-99.222;2023-03-31T14:20:21;23.70;37.00
12413;DHT22;13877;18.896;-99.222;2023-03-31T14:28:32;24.10;36.10
12413;DHT22;13877;18.896;-99.222;2023-03-31T14:31:23;23.90;35.50
12413;DHT22;13877;18.896;-99.222;2023-03-31T14:37:05;24.30;35.20
12413;DHT22;13877;18.896;-99.222;2023-03-31T14:39:45;24.50;35.20
12413;DHT22;13877;18.896;-99.222;2023-03-31T14:42:17;24.60;35.10
12413;DHT22;13877;18.896;-99.222;2023-03-31T14:44:45;24.50;34.80
12413;DHT22;13877;18.896;-99.222;2023-03-31T14:47:15;24.90;34.70
12413;DHT22;13877;18.896;-99.222;2023-03-31T14:49:45;24.70;34.10
12413;DHT22;13877;18.896;-99.222;2023-03-31T14:52:18;24.90;35.20
12413;DHT22;13877;18.896;-99.222;2023-03-31T14:54:46;25.00;34.10
12413;DHT22;13877;18.896;-99.222;2023-03-31T14:57:16;24.80;34.40
12413;DHT22;13877;18.896;-99.222;2023-03-31T14:59:46;25.10;33.90
12413;DHT22;13877;18.896;-99.222;2023-03-31T15:02:18;25.20;33.70
12413;DHT22;13877;18.896;-99.222;2023-03-31T15:04:50;25.40;34.70
12413;DHT22;13877;18.896;-99.222;2023-03-31T15:07:17;25.60;34.00
12413;DHT22;13877;18.896;-99.222;2023-03-31T15:09:48;25.70;33.20
12413;DHT22;13877;18.896;-99.222;2023-03-31T15:12:18;25.80;33.10
12413;DHT22;13877;18.896;-99.222;2023-03-31T15:14:49;25.90;32.90
12413;DHT22;13877;18.896;-99.222;2023-03-31T15:17:23;26.30;32.10
12413;DHT22;13877;18.896;-99.222;2023-03-31T15:19:56;26.20;32.00
12413;DHT22;13877;18.896;-99.222;2023-03-31T15:22:28;26.00;32.60
12413;DHT22;13877;18.896;-99.222;2023-03-31T15:24:56;26.20;32.20
12413;DHT22;13877;18.896;-99.222;2023-03-31T15:27:52;26.70;32.10
12413;DHT22;13877;18.896;-99.222;2023-03-31T15:30:25;26.70;31.80
12413;DHT22;13877;18.896;-99.222;2023-03-31T15:32:53;27.00;30.90
12413;DHT22;13877;18.896;-99.222;2023-03-31T15:37:55;26.80;31.10
12413;DHT22;13877;18.896;-99.222;2023-03-31T15:40:30;26.90;30.60
12413;DHT22;13877;18.896;-99.222;2023-03-31T15:45:54;28.00;30.00
12413;DHT22;13877;18.896;-99.222;2023-03-31T15:48:22;27.50;30.50
12413;DHT22;13877;18.896;-99.222;2023-03-31T15:50:51;27.20;30.40
12413;DHT22;13877;18.896;-99.222;2023-03-31T15:53:47;26.90;30.00
12413;DHT22;13877;18.896;-99.222;2023-03-31T15:59:04;27.50;30.00
12413;DHT22;13877;18.896;-99.222;2023-03-31T16:01:41;27.40;29.60
12413;DHT22;13877;18.896;-99.222;2023-03-31T16:04:12;28.10;29.00
12413;DHT22;13877;18.896;-99.222;2023-03-31T16:07:01;27.70;29.20
12413;DHT22;13877;18.896;-99.222;2023-03-31T16:10:14;28.00;29.60
12413;DHT22;13877;18.896;-99.222;2023-03-31T16:15:28;28.30;28.90
12413;DHT22;13877;18.896;-99.222;2023-03-31T16:18:05;28.50;29.20
12413;DHT22;13877;18.896;-99.222;2023-03-31T16:20:36;28.50;28.80
12413;DHT22;13877;18.896;-99.222;2023-03-31T16:23:23;28.70;29.00
12413;DHT22;13877;18.896;-99.222;2023-03-31T16:25:53;28.50;28.50
12413;DHT22;13877;18.896;-99.222;2023-03-31T16:28:26;29.00;28.10
12413;DHT22;13877;18.896;-99.222;2023-03-31T16:30:54;28.80;28.90
12413;DHT22;13877;18.896;-99.222;2023-03-31T16:33:24;28.10;29.00
12413;DHT22;13877;18.896;-99.222;2023-03-31T16:35:53;28.80;29.00
12413;DHT22;13877;18.896;-99.222;2023-03-31T16:38:22;28.70;28.40
12413;DHT22;13877;18.896;-99.222;2023-03-31T16:40:51;28.60;28.40
12413;DHT22;13877;18.896;-99.222;2023-03-31T16:43:27;29.50;28.60
12413;DHT22;13877;18.896;-99.222;2023-03-31T16:45:58;29.80;27.80
12413;DHT22;13877;18.896;-99.222;2023-03-31T16:48:27;28.60;28.30
12413;DHT22;13877;18.896;-99.222;2023-03-31T16:50:56;29.40;28.80
12413;DHT22;13877;18.896;-99.222;2023-03-31T16:53:26;30.70;27.20
12413;DHT22;13877;18.896;-99.222;2023-03-31T16:55:54;29.20;27.90
12413;DHT22;13877;18.896;-99.222;2023-03-31T16:58:21;29.00;29.40
12413;DHT22;13877;18.896;-99.222;2023-03-31T17:00:53;29.20;28.30
12413;DHT22;13877;18.896;-99.222;2023-03-31T17:03:21;29.10;28.30
12413;DHT22;13877;18.896;-99.222;2023-03-31T17:05:50;28.90;29.20
12413;DHT22;13877;18.896;-99.222;2023-03-31T17:08:21;29.80;28.20
12413;DHT22;13877;18.896;-99.222;2023-03-31T17:10:59;30.20;27.60
12413;DHT22;13877;18.896;-99.222;2023-03-31T17:13:27;30.20;27.50
12413;DHT22;13877;18.896;-99.222;2023-03-31T17:15:54;30.40;27.50
12413;DHT22;13877;18.896;-99.222;2023-03-31T17:18:21;30.80;27.20
12413;DHT22;13877;18.896;-99.222;2023-03-31T17:20:48;30.60;27.30
12413;DHT22;13877;18.896;-99.222;2023-03-31T17:23:16;29.10;28.00
12413;DHT22;13877;18.896;-99.222;2023-03-31T17:25:51;30.00;28.20
12413;DHT22;13877;18.896;-99.222;2023-03-31T17:28:18;30.80;26.60
12413;DHT22;13877;18.896;-99.222;2023-03-31T17:30:45;31.10;26.10
12413;DHT22;13877;18.896;-99.222;2023-03-31T17:33:15;30.10;27.20
12413;DHT22;13877;18.896;-99.222;2023-03-31T17:35:42;30.40;27.40
12413;DHT22;13877;18.896;-99.222;2023-03-31T17:38:10;30.80;27.30
12413;DHT22;13877;18.896;-99.222;2023-03-31T17:40:40;31.50;27.80
12413;DHT22;13877;18.896;-99.222;2023-03-31T17:43:07;32.10;25.70
12413;DHT22;13877;18.896;-99.222;2023-03-31T17:45:34;32.00;25.60
12413;DHT22;13877;18.896;-99.222;2023-03-31T17:48:01;31.90;25.20
12413;DHT22;13877;18.896;-99.222;2023-03-31T17:50:28;30.80;26.30
12413;DHT22;13877;18.896;-99.222;2023-03-31T17:52:55;31.60;26.40
12413;DHT22;13877;18.896;-99.222;2023-03-31T17:55:23;31.80;26.50
12413;DHT22;13877;18.896;-99.222;2023-03-31T17:57:50;31.80;26.30
12413;DHT22;13877;18.896;-99.222;2023-03-31T18:00:18;31.90;25.80
12413;DHT22;13877;18.896;-99.222;2023-03-31T18:02:45;31.70;26.10
12413;DHT22;13877;18.896;-99.222;2023-03-31T18:05:12;32.20;25.90
12413;DHT22;13877;18.896;-99.222;2023-03-31T18:07:39;31.90;25.30
12413;DHT22;13877;18.896;-99.222;2023-03-31T18:10:07;32.20;25.30
12413;DHT22;13877;18.896;-99.222;2023-03-31T18:12:35;32.00;25.60
12413;DHT22;13877;18.896;-99.222;2023-03-31T18:15:03;32.00;25.50
12413;DHT22;13877;18.896;-99.222;2023-03-31T18:17:31;32.00;25.10
12413;DHT22;13877;18.896;-99.222;2023-03-31T18:19:59;32.00;25.00
12413;DHT22;13877;18.896;-99.222;2023-03-31T18:22:26;31.50;26.20
12413;DHT22;13877;18.896;-99.222;2023-03-31T18:24:54;31.60;25.40
12413;DHT22;13877;18.896;-99.222;2023-03-31T18:27:21;31.00;25.80
12413;DHT22;13877;18.896;-99.222;2023-03-31T18:29:48;31.60;25.80
12413;DHT22;13877;18.896;-99.222;2023-03-31T18:32:15;31.70;25.80
12413;DHT22;13877;18.896;-99.222;2023-03-31T18:34:42;31.20;25.60
12413;DHT22;13877;18.896;-99.222;2023-03-31T18:37:10;32.20;25.20
12413;DHT22;13877;18.896;-99.222;2023-03-31T18:39:38;32.50;24.50
12413;DHT22;13877;18.896;-99.222;2023-03-31T18:42:05;32.50;24.70
12413;DHT22;13877;18.896;-99.222;2023-03-31T18:44:32;32.90;24.30